Time;durP1;ratioP1;P1;durP2;ratioP2;P2;SDS_P1;SDS_P2;PMS_P1;PMS_P2;Temp;Humidity;BMP_temperature;BMP_pressure;BME280_temperature;BME280_humidity;BME280_pressure;Samples;Min_cycle;Max_cycle;Signal;HPM_P1;HPM_P2
2022/03/24 00:01:30;;;;;;;20.35;12.27;;;7.20;52.50;;;5.93;49.19;97000.81;4954234;28;20111;-59
2022/03/24 00:03:56;;;;;;;28.90;12.55;;;7.10;52.70;;;5.88;49.37;96995.13;4964255;28;20038;-60
2022/03/24 00:06:21;;;;;;;22.20;12.40;;;7.00;53.00;;;5.84;49.76;96991.16;4983409;28;20054;-59
2022/03/24 00:08:47;;;;;;;18.77;12.25;;;7.00;53.20;;;5.83;49.84;96992.94;4969025;28;20415;-59
2022/03/24 00:11:13;;;;;;;24.13;12.35;;;7.10;53.20;;;5.81;49.46;96987.03;4981362;28;20483;-60
2022/03/24 00:13:38;;;;;;;17.92;12.63;;;7.10;53.00;;;5.81;50.52;96991.44;4986801;28;20034;-60
2022/03/24 00:16:04;;;;;;;18.67;12.10;;;7.10;53.00;;;5.81;49.68;96987.03;4983906;28;20355;-61
2022/03/24 00:18:32;;;;;;;20.20;12.52;;;7.10;53.00;;;5.80;50.49;96992.38;5003283;28;20035;-59
2022/03/24 00:20:58;;;;;;;18.05;12.40;;;7.10;53.00;;;5.77;49.79;96990.06;4965096;28;20049;-60
2022/03/24 00:23:24;;;;;;;21.10;13.10;;;7.10;52.80;;;5.76;50.00;96983.19;4966566;28;20038;-60
2022/03/24 00:25:50;;;;;;;22.13;12.27;;;7.10;52.70;;;5.72;49.80;96987.88;4985202;28;20204;-59
2022/03/24 00:28:15;;;;;;;19.63;12.73;;;7.00;53.10;;;5.68;50.81;96990.88;4972157;28;20034;-59
2022/03/24 00:30:41;;;;;;;21.45;12.60;;;7.00;53.00;;;5.64;50.22;96994.72;4971197;28;20386;-60
2022/03/24 00:33:07;;;;;;;18.27;12.57;;;7.00;53.10;;;5.60;50.54;96988.94;4976210;28;20518;-59
2022/03/24 00:35:33;;;;;;;20.83;12.63;;;7.00;53.20;;;5.54;50.40;96985.09;4962009;28;20129;-60
2022/03/24 00:37:58;;;;;;;18.90;12.18;;;6.90;53.40;;;5.49;51.21;96991.69;4971973;28;20034;-59
2022/03/24 00:40:24;;;;;;;23.00;13.30;;;6.90;53.50;;;5.47;50.60;96998.84;4985639;28;20034;-59
2022/03/24 00:42:50;;;;;;;21.58;12.73;;;6.80;53.50;;;5.43;51.06;96987.84;4980511;28;20130;-59
2022/03/24 00:45:18;;;;;;;21.88;13.20;;;6.80;53.20;;;5.40;51.44;96993.31;4967911;28;20030;-59
2022/03/24 00:47:44;;;;;;;20.52;13.60;;;6.70;53.20;;;5.35;51.17;96979.84;4973312;28;20045;-60
2022/03/24 00:50:11;;;;;;;23.48;14.35;;;6.70;53.60;;;5.33;50.90;96973.94;4969915;28;20038;-60
2022/03/24 00:52:41;;;;;;;25.42;13.93;;;6.60;53.70;;;5.29;51.23;96979.56;4988552;28;20490;-60
2022/03/24 00:55:15;;;;;;;20.73;13.65;;;6.60;53.70;;;5.25;51.72;96968.59;4955082;28;20069;-60
2022/03/24 00:57:42;;;;;;;24.58;13.45;;;6.60;53.60;;;5.24;51.19;96972.16;4978306;28;20042;-60
2022/03/24 01:00:15;;;;;;;21.75;12.45;;;6.60;53.60;;;5.22;52.60;96974.06;4956508;28;20046;-60
2022/03/24 01:02:41;;;;;;;25.08;13.98;;;6.60;53.40;;;5.19;51.33;96971.72;4968375;28;20027;-60
2022/03/24 01:05:08;;;;;;;24.60;13.23;;;6.60;53.30;;;5.17;51.10;96971.84;4970423;28;20492;-60
2022/03/24 01:07:37;;;;;;;22.90;12.80;;;6.60;53.20;;;5.16;52.32;96971.97;4967097;28;20034;-60
2022/03/24 01:10:03;;;;;;;23.55;13.05;;;6.50;52.90;;;5.15;51.07;96978.16;4999795;28;20455;-60
2022/03/24 01:12:29;;;;;;;22.35;12.57;;;6.60;52.90;;;5.16;51.20;96969.38;4977103;28;20035;-60
2022/03/24 01:14:56;;;;;;;21.33;13.50;;;6.50;52.70;;;5.13;51.19;96970.47;4974388;28;20073;-60
2022/03/24 01:17:23;;;;;;;20.25;13.60;;;6.60;52.70;;;5.13;50.74;96964.44;4996237;28;20449;-60
2022/03/24 01:19:49;;;;;;;24.88;13.63;;;6.50;52.70;;;5.14;51.02;96966.91;4968770;28;20031;-60
2022/03/24 01:22:15;;;;;;;23.65;14.07;;;6.60;52.30;;;5.13;50.35;96964.44;4957998;28;20130;-60
2022/03/24 01:24:41;;;;;;;20.73;12.60;;;6.60;52.30;;;5.12;50.37;96968.00;4987174;28;20031;-58
2022/03/24 01:27:07;;;;;;;23.95;13.60;;;6.60;52.10;;;5.14;50.68;96971.28;4963541;28;20038;-61
2022/03/24 01:29:33;;;;;;;23.08;13.02;;;6.60;52.10;;;5.11;50.88;96966.34;4991445;28;20570;-61
2022/03/24 01:31:59;;;;;;;23.52;13.68;;;6.50;52.30;;;5.11;50.78;96963.75;4956026;28;20355;-59
2022/03/24 01:34:25;;;;;;;22.67;12.10;;;6.50;52.30;;;5.07;50.53;96964.97;4972120;28;20054;-59
2022/03/24 01:36:51;;;;;;;24.83;13.30;;;6.50;52.20;;;5.05;51.21;96965.09;4938635;28;20031;-59
2022/03/24 01:39:17;;;;;;;20.80;13.60;;;6.50;52.20;;;5.02;50.83;96969.78;4973172;28;20121;-60
2022/03/24 01:41:46;;;;;;;21.20;13.75;;;6.40;52.20;;;4.98;51.87;96970.97;4989998;28;20052;-59
2022/03/24 01:44:14;;;;;;;21.55;13.00;;;6.40;52.50;;;4.92;50.58;96970.53;4992212;28;20105;-60
2022/03/24 01:47:05;;;;;;;23.90;14.07;;;6.30;52.70;;;4.87;53.31;96980.56;4964912;28;20061;-59
2022/03/24 01:49:36;;;;;;;;;;;6.20;53.10;;;4.83;53.71;96979.16;4982615;28;20116;-59
2022/03/24 01:52:04;;;;;;;22.33;13.38;;;6.20;53.10;;;4.81;51.10;96973.25;4956236;28;19918;-59
2022/03/24 01:54:31;;;;;;;20.80;12.88;;;6.20;53.30;;;4.79;51.36;96969.97;4981801;28;20746;-59
2022/03/24 01:56:57;;;;;;;19.50;13.48;;;6.20;53.50;;;4.76;51.20;96972.03;4986361;28;20034;-59
2022/03/24 01:59:24;;;;;;;20.20;12.43;;;6.10;53.30;;;4.71;51.20;96961.97;4973198;28;20159;-60
2022/03/24 02:01:49;;;;;;;25.55;12.95;;;6.10;53.40;;;4.68;51.31;96962.22;4973459;28;20030;-60
2022/03/24 02:04:15;;;;;;;22.00;13.07;;;6.10;53.30;;;4.66;51.25;96960.72;4974175;28;20038;-60
2022/03/24 02:06:41;;;;;;;23.83;13.50;;;6.10;53.70;;;4.64;51.40;96973.06;4954129;28;20038;-59
2022/03/24 02:09:07;;;;;;;26.35;13.98;;;6.10;53.70;;;4.58;51.34;96963.97;4979981;28;20458;-60
2022/03/24 02:11:34;;;;;;;22.40;13.65;;;5.90;53.40;;;4.53;51.48;96961.78;4970829;28;20042;-60
2022/03/24 02:14:00;;;;;;;23.63;14.20;;;5.80;53.30;;;4.50;51.53;96964.63;4972873;28;20434;-60
2022/03/24 02:16:30;;;;;;;22.88;13.38;;;5.90;53.50;;;4.47;52.65;96961.44;4972386;28;20478;-61
2022/03/24 02:18:59;;;;;;;23.40;13.68;;;5.90;53.90;;;4.44;51.60;96961.72;4969879;28;20163;-60
2022/03/24 02:21:27;;;;;;;24.13;13.27;;;5.80;53.80;;;4.39;52.77;96959.50;4985298;28;20027;-61
2022/03/24 02:23:53;;;;;;;27.58;14.02;;;5.80;53.90;;;4.36;52.31;96962.38;4988602;28;20030;-60
2022/03/24 02:26:19;;;;;;;23.63;13.80;;;5.80;54.00;;;4.28;52.17;96957.78;4971951;28;20030;-60
2022/03/24 02:28:45;;;;;;;24.30;13.20;;;5.70;54.10;;;4.25;52.45;96952.84;4952338;28;20027;-60
2022/03/24 02:31:15;;;;;;;26.00;13.23;;;5.70;54.10;;;4.25;53.19;96962.44;4981090;28;20046;-60
2022/03/24 02:33:40;;;;;;;21.52;13.38;;;5.60;54.20;;;4.20;52.36;96955.00;4990494;28;20030;-60
2022/03/24 02:36:07;;;;;;;22.33;13.10;;;5.50;54.50;;;4.14;52.22;96955.53;4953492;28;20045;-61
2022/03/24 02:38:33;;;;;;;22.88;12.65;;;5.40;54.70;;;4.13;52.33;96953.88;4966645;28;20415;-61
2022/03/24 02:40:59;;;;;;;20.05;12.85;;;5.40;54.80;;;4.11;52.53;96955.78;4966047;28;20085;-60
2022/03/24 02:43:24;;;;;;;23.85;13.30;;;5.40;54.80;;;4.07;52.36;96949.16;4978543;28;20035;-60
2022/03/24 02:45:50;;;;;;;22.52;13.32;;;5.40;55.00;;;4.02;53.00;96948.72;4954327;28;20050;-60
2022/03/24 02:48:16;;;;;;;23.48;13.02;;;5.40;54.80;;;3.94;52.48;96945.94;4971896;28;20066;-60
2022/03/24 02:50:42;;;;;;;18.60;12.55;;;5.30;55.10;;;3.89;52.93;96945.50;4963872;28;20039;-60
2022/03/24 02:53:09;;;;;;;22.40;12.27;;;5.20;55.10;;;3.84;52.79;96939.81;4985364;28;20053;-60
2022/03/24 02:55:35;;;;;;;21.60;13.38;;;5.10;55.40;;;3.75;53.12;96938.00;4985991;28;20093;-61
2022/03/24 02:58:00;;;;;;;22.17;13.10;;;5.10;55.90;;;3.68;53.05;96941.09;4966487;28;20035;-58
2022/03/24 03:00:27;;;;;;;22.30;12.55;;;5.10;56.20;;;3.64;53.45;96946.69;4955105;28;20137;-61
2022/03/24 03:02:53;;;;;;;22.38;13.32;;;5.00;56.50;;;3.64;53.93;96949.28;4961322;28;20888;-61
2022/03/24 03:05:19;;;;;;;18.83;12.00;;;5.10;56.50;;;3.68;53.76;96954.13;4988064;28;20054;-61
2022/03/24 03:07:45;;;;;;;31.33;19.63;;;5.10;56.40;;;3.69;54.27;96953.16;4993267;28;20507;-61
2022/03/24 03:10:11;;;;;;;32.80;17.70;;;5.20;56.90;;;3.73;54.59;96955.50;4988465;28;20050;-61
2022/03/24 03:12:37;;;;;;;28.23;16.42;;;5.20;57.70;;;3.73;54.80;96950.31;4995152;28;20097;-61
2022/03/24 03:15:04;;;;;;;21.65;13.80;;;5.20;57.50;;;3.72;54.60;96953.88;4948836;28;20113;-61
2022/03/24 03:17:30;;;;;;;20.45;12.70;;;5.20;56.30;;;3.72;54.42;96956.47;4969195;28;20097;-61
2022/03/24 03:19:56;;;;;;;24.73;13.02;;;5.10;56.20;;;3.71;54.40;96954.81;4972662;28;20718;-61
2022/03/24 03:22:22;;;;;;;22.05;12.88;;;5.20;56.40;;;3.71;54.28;96952.22;4984638;28;20074;-61
2022/03/24 03:24:48;;;;;;;20.23;12.98;;;5.20;56.40;;;3.72;54.47;96948.66;4954048;28;20407;-61
2022/03/24 03:27:14;;;;;;;55.33;30.30;;;5.10;56.60;;;3.72;54.47;96954.69;4977931;28;20759;-61
2022/03/24 03:29:41;;;;;;;61.65;37.72;;;5.20;56.80;;;3.72;54.67;96948.66;4988970;28;20398;-61
2022/03/24 03:32:07;;;;;;;26.27;17.00;;;5.20;57.40;;;3.72;55.16;96951.25;4980329;28;20035;-61
2022/03/24 03:34:33;;;;;;;23.65;13.55;;;5.20;56.70;;;3.69;54.88;96954.94;4971633;28;20114;-61
2022/03/24 03:36:59;;;;;;;19.55;12.80;;;5.20;56.50;;;3.66;55.03;96956.03;4980776;28;20023;-61
2022/03/24 03:39:25;;;;;;;19.98;13.38;;;5.10;56.60;;;3.65;55.03;96958.75;4963005;28;20402;-61
2022/03/24 03:41:51;;;;;;;22.30;13.57;;;5.10;56.80;;;3.61;54.58;96967.72;4997616;28;20023;-59
2022/03/24 03:44:17;;;;;;;20.42;12.77;;;5.00;57.00;;;3.53;55.28;96954.53;4983031;28;20133;-61
2022/03/24 03:46:42;;;;;;;24.00;13.05;;;5.00;57.10;;;3.47;55.39;96961.06;4966303;28;20030;-61
2022/03/24 03:49:10;;;;;;;25.77;13.35;;;4.90;57.30;;;3.43;55.51;96956.25;4964858;28;20050;-64
2022/03/24 03:51:37;;;;;;;21.85;12.85;;;4.90;57.40;;;3.39;55.43;96958.22;4966175;28;20046;-64
2022/03/24 03:54:07;;;;;;;19.88;12.32;;;4.90;57.40;;;3.33;55.40;96962.16;4972684;28;20033;-61
2022/03/24 03:56:34;;;;;;;20.77;13.93;;;4.80;57.60;;;3.28;55.64;96955.69;4966652;28;20549;-60
2022/03/24 03:58:59;;;;;;;27.48;15.98;;;4.70;58.60;;;3.27;56.17;96954.03;4954832;28;20042;-61
2022/03/24 04:01:26;;;;;;;23.80;14.75;;;4.80;58.90;;;3.24;55.92;96959.47;4966464;28;20075;-61
2022/03/24 04:03:52;;;;;;;26.88;15.57;;;4.70;59.20;;;3.27;56.01;96960.06;4978294;28;20038;-61
2022/03/24 04:06:18;;;;;;;22.60;15.98;;;4.80;58.90;;;3.24;55.89;96965.50;4983628;28;20090;-61
2022/03/24 04:08:44;;;;;;;44.60;27.67;;;4.70;58.60;;;3.24;56.16;96959.47;4971427;28;20046;-61
2022/03/24 04:11:10;;;;;;;35.58;21.00;;;4.70;58.80;;;3.23;56.30;96965.63;4952828;28;20035;-61
2022/03/24 04:13:37;;;;;;;23.90;14.23;;;4.70;58.90;;;3.20;56.71;96964.09;4953413;28;20046;-61
2022/03/24 04:16:03;;;;;;;21.25;12.73;;;4.70;58.50;;;3.18;56.53;96959.97;4960854;28;20035;-61
2022/03/24 04:18:29;;;;;;;21.98;13.00;;;4.60;58.60;;;3.16;56.53;96956.66;4995117;28;20035;-61
2022/03/24 04:20:55;;;;;;;20.42;13.48;;;4.60;58.80;;;3.16;56.23;96967.03;4999629;28;20030;-61
2022/03/24 04:23:21;;;;;;;23.77;12.57;;;4.60;58.70;;;3.14;56.60;96963.75;4962857;28;20093;-61
2022/03/24 04:25:47;;;;;;;21.27;12.73;;;4.70;58.80;;;3.10;56.91;96957.97;4978561;28;20066;-59
2022/03/24 04:28:14;;;;;;;18.42;12.75;;;4.60;58.80;;;3.07;56.65;96966.84;4982384;28;20125;-59
2022/03/24 04:30:39;;;;;;;21.48;13.10;;;4.60;59.00;;;3.03;56.84;96957.63;4953443;28;20041;-61
2022/03/24 04:33:05;;;;;;;23.50;13.35;;;4.50;59.10;;;3.01;57.36;96959.53;4982749;28;20035;-61
2022/03/24 04:35:32;;;;;;;24.40;14.10;;;4.50;59.20;;;3.01;57.51;96959.53;4971428;28;20451;-60
2022/03/24 04:37:58;;;;;;;21.45;14.40;;;4.50;59.30;;;2.97;57.17;96972.88;4971474;28;20053;-61
2022/03/24 04:40:24;;;;;;;27.25;17.40;;;4.40;59.70;;;2.95;57.86;96972.19;4943751;28;20035;-60
2022/03/24 04:42:52;;;;;;;33.25;21.58;;;4.40;60.60;;;2.93;58.21;96972.28;4976044;28;20046;-59
2022/03/24 04:45:18;;;;;;;29.95;20.67;;;4.50;60.70;;;2.92;57.84;96975.00;4988075;28;20038;-59
2022/03/24 04:47:45;;;;;;;23.02;15.57;;;4.40;60.40;;;2.89;57.88;96976.06;4970343;28;20037;-59
2022/03/24 04:50:11;;;;;;;23.10;13.70;;;4.40;60.30;;;2.87;57.71;96970.16;4967772;28;20027;-63
2022/03/24 04:52:37;;;;;;;23.35;14.00;;;4.40;60.10;;;2.85;58.30;96969.47;4957733;28;20035;-60
2022/03/24 04:55:04;;;;;;;25.40;13.13;;;4.40;60.00;;;2.82;58.24;96969.72;4984461;28;20037;-60
2022/03/24 04:57:29;;;;;;;23.50;13.73;;;4.30;60.10;;;2.81;58.32;96973.25;4962011;28;20030;-60
2022/03/24 04:59:56;;;;;;;22.10;13.27;;;4.30;60.30;;;2.79;58.11;96975.16;4995565;28;20046;-60
2022/03/24 05:02:22;;;;;;;22.88;13.60;;;4.30;60.40;;;2.78;58.37;96973.50;4974847;28;20073;-60
2022/03/24 05:04:48;;;;;;;28.95;15.63;;;4.30;60.40;;;2.77;58.71;96966.66;4958797;28;20560;-60
2022/03/24 05:07:14;;;;;;;24.50;14.02;;;4.30;60.60;;;2.75;58.25;96969.38;4988331;28;20050;-60
2022/03/24 05:09:39;;;;;;;24.98;13.77;;;4.20;60.60;;;2.74;58.73;96961.69;4983019;28;20041;-60
2022/03/24 05:12:06;;;;;;;20.58;13.23;;;4.40;60.50;;;2.74;58.69;96967.72;4986512;28;20031;-60
2022/03/24 05:14:32;;;;;;;24.95;13.88;;;4.40;60.50;;;2.74;58.99;96972.09;4990487;28;20030;-60
2022/03/24 05:16:58;;;;;;;20.90;12.95;;;4.30;60.30;;;2.72;58.77;96968.78;4987314;28;20031;-61
2022/03/24 05:19:24;;;;;;;21.88;13.43;;;4.30;60.50;;;2.69;58.63;96975.03;4978056;28;20391;-61
2022/03/24 05:21:50;;;;;;;20.77;13.10;;;4.30;60.60;;;2.66;59.29;96982.22;4962855;28;20069;-61
2022/03/24 05:24:16;;;;;;;22.45;13.68;;;4.30;60.70;;;2.65;59.47;96983.16;4994990;28;20026;-61
2022/03/24 05:26:42;;;;;;;18.80;12.80;;;4.30;60.70;;;2.62;59.53;96988.59;4978861;28;20448;-60
2022/03/24 05:29:08;;;;;;;21.13;12.95;;;4.20;60.90;;;2.62;59.09;96984.25;4994087;28;20137;-60
2022/03/24 05:31:34;;;;;;;20.27;12.68;;;4.30;60.80;;;2.62;59.43;96983.41;4978341;28;20062;-61
2022/03/24 05:34:00;;;;;;;22.65;13.63;;;4.30;60.80;;;2.60;59.10;96985.31;4995141;28;20042;-60
2022/03/24 05:36:25;;;;;;;21.45;12.95;;;4.30;61.00;;;2.62;59.23;96988.59;4978650;28;20035;-61
2022/03/24 05:38:51;;;;;;;28.10;14.13;;;4.30;60.80;;;2.62;59.59;96989.44;4994575;28;20093;-60
2022/03/24 05:41:17;;;;;;;24.70;13.05;;;4.30;60.90;;;2.63;59.89;96996.28;4962577;28;20034;-61
2022/03/24 05:46:31;;;;;;;24.95;12.77;;;4.30;60.90;;;2.63;59.98;96995.44;4986556;28;20048;-60
2022/03/24 05:48:57;;;;;;;21.15;13.30;;;4.30;60.90;;;2.62;59.61;96999.00;4985258;28;20022;-60
2022/03/24 05:51:23;;;;;;;22.38;13.98;;;4.30;60.90;;;2.63;59.77;96996.28;4956162;28;20038;-60
2022/03/24 05:53:49;;;;;;;24.10;13.50;;;4.30;61.20;;;2.65;59.98;96996.16;4987049;28;20042;-59
2022/03/24 05:56:15;;;;;;;23.30;13.05;;;4.30;60.90;;;2.66;60.33;96998.63;4981596;28;20030;-60
2022/03/24 05:58:41;;;;;;;24.67;15.07;;;4.40;60.90;;;2.67;60.04;96991.66;5005673;28;20044;-60
2022/03/24 06:01:07;;;;;;;21.27;13.60;;;4.40;61.00;;;2.70;59.80;96992.25;4981455;28;20038;-60
2022/03/24 06:03:35;;;;;;;20.52;13.48;;;4.60;60.80;;;2.78;60.54;97002.06;4988020;28;20082;-60
2022/03/24 06:06:06;;;;;;;20.48;13.48;;;4.60;60.70;;;2.81;60.54;97001.84;4956283;28;20035;-61
2022/03/24 06:08:33;;;;;;;22.88;13.88;;;4.70;60.70;;;2.87;60.40;96993.56;4941441;28;20383;-60
2022/03/24 06:11:00;;;;;;;25.10;14.77;;;4.80;60.20;;;2.93;60.33;96997.44;4940468;28;20086;-60
2022/03/24 06:13:26;;;;;;;19.20;13.32;;;4.90;60.20;;;2.98;60.46;96995.34;5002255;28;20134;-60
2022/03/24 06:15:51;;;;;;;21.77;13.75;;;5.10;59.70;;;3.05;59.93;96994.72;4970017;28;20076;-60
2022/03/24 06:18:20;;;;;;;25.48;13.93;;;5.20;59.10;;;3.13;60.97;96993.28;4988931;28;20039;-61
2022/03/24 06:20:46;;;;;;;24.40;15.82;;;5.40;58.70;;;3.18;60.57;96994.59;4972504;28;20569;-61
2022/03/24 06:23:12;;;;;;;26.73;16.15;;;5.60;58.10;;;3.27;60.09;96993.84;4972023;28;20509;-61
2022/03/24 06:25:40;;;;;;;27.25;16.77;;;5.70;58.00;;;3.37;60.27;96992.16;4955003;28;20101;-61
2022/03/24 06:28:06;;;;;;;27.75;15.48;;;5.90;57.60;;;3.50;60.12;97002.44;4955633;28;20503;-61
2022/03/24 06:30:32;;;;;;;20.63;13.32;;;6.10;57.20;;;3.64;60.80;97003.94;4970408;28;20073;-61
2022/03/24 06:32:58;;;;;;;20.40;12.50;;;6.30;56.40;;;3.79;60.13;97002.66;4987049;28;20100;-61
2022/03/24 06:35:24;;;;;;;21.42;13.30;;;6.40;56.00;;;3.94;60.01;96995.41;4990555;28;20027;-61
2022/03/24 06:37:51;;;;;;;21.83;13.48;;;6.60;55.60;;;4.11;59.61;97000.03;4992238;28;20023;-61
2022/03/24 06:40:17;;;;;;;18.92;13.45;;;6.80;54.70;;;4.25;59.67;96994.50;4943009;28;20106;-61
2022/03/24 06:42:43;;;;;;;21.60;13.70;;;7.00;54.80;;;4.40;59.30;97002.81;4973652;28;20100;-61
2022/03/24 06:45:10;;;;;;;19.63;13.65;;;7.10;54.30;;;4.52;59.61;97000.94;4958094;28;20035;-61
2022/03/24 06:47:36;;;;;;;20.92;13.82;;;7.20;54.10;;;4.67;59.15;96999.66;4969991;28;20047;-61
2022/03/24 06:50:02;;;;;;;21.40;13.52;;;7.40;53.40;;;4.84;58.61;97011.28;4979197;28;20096;-61
2022/03/24 06:52:28;;;;;;;20.60;13.25;;;7.60;53.20;;;5.01;58.42;97007.22;4974796;28;20089;-61
2022/03/24 06:54:54;;;;;;;17.92;12.25;;;7.90;52.40;;;5.20;58.31;97000.28;4990338;28;20038;-61
2022/03/24 06:57:20;;;;;;;19.70;13.13;;;8.30;51.30;;;5.38;58.44;97004.84;4989421;28;20031;-61
2022/03/24 06:59:45;;;;;;;18.58;13.52;;;8.50;50.60;;;5.57;57.88;97004.06;4984199;28;20407;-61
2022/03/24 07:02:11;;;;;;;23.80;13.10;;;8.90;49.80;;;5.79;58.21;96998.56;4939115;28;20125;-60
2022/03/24 07:04:37;;;;;;;18.00;12.68;;;9.30;49.00;;;6.01;57.87;96995.72;4954641;28;20034;-60
2022/03/24 07:07:06;;;;;;;19.65;11.75;;;9.70;47.60;;;6.26;56.96;96998.72;4955220;28;20054;-60
2022/03/24 07:09:32;;;;;;;29.23;13.00;;;10.10;47.50;;;6.50;56.79;96998.25;4978483;28;20042;-60
2022/03/24 07:11:58;;;;;;;21.70;12.88;;;10.40;46.50;;;6.75;56.69;96998.44;4970925;28;20023;-60
2022/03/24 07:14:24;;;;;;;18.00;12.73;;;10.80;45.60;;;7.02;55.97;96994.25;4971859;28;20125;-61
2022/03/24 07:16:51;;;;;;;19.33;12.50;;;11.30;44.30;;;7.30;55.37;96988.03;4970720;28;20039;-61
2022/03/24 07:19:18;;;;;;;19.92;14.38;;;11.70;43.00;;;7.58;54.84;96985.38;4939277;28;20101;-60
2022/03/24 07:21:44;;;;;;;17.45;12.73;;;12.20;41.80;;;7.83;54.27;96989.03;4924520;28;20031;-60
2022/03/24 07:24:10;;;;;;;15.50;12.82;;;12.60;40.70;;;8.10;52.94;96990.75;4963068;28;20037;-62
2022/03/24 07:26:36;;;;;;;15.85;12.40;;;12.80;39.70;;;8.35;53.08;96995.22;4976521;28;20104;-60
2022/03/24 07:29:02;;;;;;;21.88;13.60;;;13.10;39.50;;;8.64;52.58;96991.50;4954638;28;20039;-60
2022/03/24 07:31:28;;;;;;;16.60;12.27;;;13.60;38.90;;;8.94;51.19;96995.44;4970106;28;20034;-61
2022/03/24 07:33:55;;;;;;;21.88;14.65;;;14.00;37.80;;;9.23;51.07;96989.81;4970619;28;20030;-61
2022/03/24 07:36:22;;;;;;;20.23;14.57;;;14.40;37.10;;;9.51;49.71;96986.78;4970275;28;20090;-61
2022/03/24 07:38:55;;;;;;;21.35;14.43;;;14.70;36.50;;;9.74;47.88;96981.75;4954490;28;20050;-60
2022/03/24 07:41:21;;;;;;;23.60;14.30;;;14.90;35.60;;;9.99;48.32;96987.84;4970370;28;20134;-61
2022/03/24 07:43:47;;;;;;;24.65;17.73;;;15.30;35.00;;;10.23;48.99;96989.69;4954110;28;20057;-60
2022/03/24 07:46:13;;;;;;;23.02;15.05;;;15.60;35.30;;;10.50;48.33;96987.69;4976473;28;20031;-61
2022/03/24 07:48:39;;;;;;;20.63;13.15;;;16.00;34.50;;;10.76;47.78;96984.84;4976798;28;20031;-61
2022/03/24 07:51:05;;;;;;;15.43;12.88;;;16.40;33.90;;;11.04;46.56;96988.72;4970410;28;20039;-61
2022/03/24 07:53:53;;;;;;;15.23;12.63;;;16.80;33.30;;;11.43;45.26;96990.53;4953751;28;20384;-61
2022/03/24 07:56:27;;;;;;;18.30;13.15;;;17.20;32.90;;;11.75;46.00;96984.25;4983300;28;20039;-61
2022/03/24 07:58:53;;;;;;;17.13;12.40;;;17.80;31.80;;;12.07;45.76;96983.25;4954901;28;20094;-61
2022/03/24 08:01:45;;;;;;;16.05;12.52;;;18.20;31.20;;;12.44;42.65;96980.63;4986127;28;20068;-61
2022/03/24 08:04:11;;;;;;;17.48;12.27;;;18.20;30.00;;;12.65;44.18;96984.38;4969187;28;20030;-61
2022/03/24 08:06:39;;;;;;;18.98;12.57;;;18.50;30.10;;;12.95;43.70;96980.78;4953632;28;20061;-62
2022/03/24 08:09:04;;;;;;;18.08;12.88;;;18.90;29.70;;;13.26;43.26;96977.16;4954171;28;20510;-62
2022/03/24 08:11:30;;;;;;;19.38;13.38;;;19.20;29.20;;;13.60;42.36;96979.22;4970129;28;20035;-62
2022/03/24 08:13:56;;;;;;;19.77;12.95;;;19.50;28.30;;;13.91;42.05;96973.63;4953654;28;20047;-61
2022/03/24 08:16:24;;;;;;;17.95;12.55;;;19.90;28.30;;;14.21;40.84;96971.66;4962272;28;20427;-61
2022/03/24 08:18:50;;;;;;;18.80;13.57;;;20.10;27.60;;;14.55;39.73;96974.44;4995180;28;20030;-62
2022/03/24 08:21:16;;;;;;;17.73;12.98;;;20.30;26.60;;;14.81;39.32;96978.28;4973268;28;20104;-62
2022/03/24 08:23:41;;;;;;;19.50;13.63;;;20.60;26.40;;;15.11;37.57;96977.03;4956471;28;20038;-62
2022/03/24 08:26:07;;;;;;;17.80;12.20;;;20.70;26.50;;;15.40;37.57;96973.31;4984940;28;20043;-62
2022/03/24 08:28:33;;;;;;;15.77;12.48;;;20.90;26.00;;;15.72;37.96;96971.00;4978763;28;20057;-62
2022/03/24 08:30:59;;;;;;;20.95;13.43;;;21.40;25.80;;;16.05;37.66;96971.88;4980729;28;20214;-61
2022/03/24 08:33:24;;;;;;;18.60;13.07;;;21.80;25.70;;;16.36;36.95;96971.31;4990054;28;20058;-62
2022/03/24 08:35:50;;;;;;;14.80;12.07;;;22.10;25.20;;;16.65;35.66;96978.03;4972641;28;20085;-62
2022/03/24 08:38:16;;;;;;;17.63;13.13;;;22.30;25.00;;;16.91;36.02;96982.53;4989006;28;20034;-62
2022/03/24 08:40:42;;;;;;;21.35;16.60;;;22.60;24.40;;;17.17;35.04;96986.16;4988869;28;20062;-62
2022/03/24 08:43:08;;;;;;;17.10;13.27;;;22.80;24.70;;;17.45;35.59;96978.72;4970058;28;20510;-62
2022/03/24 08:45:35;;;;;;;15.90;13.18;;;23.20;24.50;;;17.63;34.20;96978.03;4986032;28;20045;-62
2022/03/24 08:48:01;;;;;;;20.98;14.40;;;22.90;23.60;;;17.77;33.97;96978.81;4972955;28;20034;-62
2022/03/24 08:50:26;;;;;;;17.65;14.52;;;23.10;24.10;;;18.03;33.58;96971.50;4985725;28;20062;-62
2022/03/24 08:52:52;;;;;;;18.17;13.82;;;23.60;23.90;;;18.27;33.11;96980.56;4954953;28;20125;-61
2022/03/24 08:55:18;;;;;;;16.45;13.55;;;23.70;22.70;;;18.47;32.06;96982.25;4970514;28;20023;-62
2022/03/24 08:57:44;;;;;;;18.42;13.27;;;23.60;22.30;;;18.72;32.72;96980.44;4949814;28;20404;-62
2022/03/24 09:00:12;;;;;;;18.92;14.57;;;24.30;22.40;;;19.08;31.61;96985.03;4925302;28;20047;-62
2022/03/24 09:02:50;;;;;;;16.85;13.50;;;24.70;22.30;;;19.36;30.00;96976.50;4972164;28;20406;-62
2022/03/24 09:05:16;;;;;;;17.80;13.30;;;24.50;22.00;;;19.58;31.18;96980.38;4987235;28;20490;-62
2022/03/24 09:07:42;;;;;;;15.60;13.48;;;24.90;21.70;;;19.82;31.66;96969.81;4988926;28;20050;-62
2022/03/24 09:10:09;;;;;;;15.45;12.85;;;25.10;22.10;;;20.13;30.27;96972.22;4953680;28;20070;-62
2022/03/24 09:12:40;;;;;;;17.13;13.32;;;25.30;21.00;;;20.42;30.47;96975.16;4969498;28;20054;-62
2022/03/24 09:15:08;;;;;;;22.20;13.40;;;25.60;21.50;;;20.70;30.01;96972.63;4953793;28;20039;-62
2022/03/24 09:17:35;;;;;;;18.73;13.82;;;25.70;21.50;;;21.02;29.72;96980.28;4937232;28;20062;-62
2022/03/24 09:20:02;;;;;;;16.38;13.13;;;26.10;21.30;;;21.28;28.88;96974.50;4960972;28;20058;-62
2022/03/24 09:22:28;;;;;;;19.85;13.60;;;26.10;20.60;;;21.51;29.29;96973.63;4990038;28;20696;-62
2022/03/24 09:24:54;;;;;;;19.13;14.10;;;26.40;20.80;;;21.76;28.34;96975.19;4992120;28;20038;-62
2022/03/24 09:27:19;;;;;;;17.17;13.13;;;26.60;20.40;;;21.97;27.88;96972.66;4991926;28;20134;-63
2022/03/24 09:29:46;;;;;;;19.60;14.25;;;26.90;19.70;;;22.16;27.67;96970.59;4992296;28;20041;-62
2022/03/24 09:32:14;;;;;;;17.98;13.98;;;26.80;19.90;;;22.38;27.70;96968.03;4992556;28;20366;-62
2022/03/24 09:34:40;;;;;;;16.08;13.70;;;27.00;20.30;;;22.59;27.41;96970.00;4990703;28;20034;-62
2022/03/24 09:37:07;;;;;;;16.48;13.40;;;27.00;20.20;;;22.76;27.42;96974.56;4975785;28;20047;-67
2022/03/24 09:39:36;;;;;;;17.00;13.77;;;27.20;20.00;;;22.97;25.51;96964.97;4956283;28;20046;-62
2022/03/24 09:42:02;;;;;;;19.90;15.48;;;27.50;19.20;;;23.16;26.28;96969.81;4972789;28;20027;-62
2022/03/24 09:44:28;;;;;;;23.13;15.90;;;28.00;19.00;;;23.45;26.61;96967.78;4972405;28;20498;-62
2022/03/24 09:46:54;;;;;;;18.40;13.95;;;28.60;19.00;;;23.78;25.83;96968.75;4978996;28;20085;-62
2022/03/24 09:49:20;;;;;;;15.23;13.15;;;29.00;17.90;;;23.96;24.96;96967.59;4986471;28;20038;-63
2022/03/24 09:51:46;;;;;;;16.42;12.80;;;29.10;16.90;;;24.08;24.47;96960.19;4988980;28;20034;-62
2022/03/24 09:54:12;;;;;;;18.45;13.07;;;29.50;16.80;;;24.26;24.39;96959.84;4979131;28;20530;-62
2022/03/24 09:56:38;;;;;;;20.27;13.68;;;29.70;16.60;;;24.43;24.29;96951.66;4975398;28;20390;-62
2022/03/24 09:59:05;;;;;;;15.88;12.90;;;30.00;16.50;;;24.69;24.42;96960.78;4982546;28;20618;-62
2022/03/24 10:01:30;;;;;;;15.95;14.20;;;30.70;16.60;;;24.95;24.40;96943.72;4971765;28;20475;-63
2022/03/24 10:04:10;;;;;;;17.38;12.35;;;31.20;16.10;;;25.31;22.80;96952.84;4972304;28;20077;-63
2022/03/24 10:06:39;;;;;;;16.97;13.23;;;32.10;15.30;;;25.78;23.96;96959.25;4971812;28;20035;-63
2022/03/24 10:09:04;;;;;;;16.40;12.95;;;33.00;14.40;;;26.21;24.07;96950.72;4973673;28;20031;-63
2022/03/24 10:11:30;;;;;;;19.60;13.70;;;33.50;14.20;;;26.80;24.42;96947.53;4983374;28;20054;-63
2022/03/24 10:13:58;;;;;;;14.02;12.27;;;34.30;14.50;;;27.45;22.95;96948.50;4960208;28;20047;-63
2022/03/24 10:16:33;;;;;;;17.60;10.30;;;35.00;13.00;;;28.17;20.00;96948.16;4971818;28;20092;-61